createdAt,value
2016-04-23T00:01:14.969Z,0
2016-04-23T00:03:20.646Z,0
2016-04-23T00:04:08.555Z,0
2016-04-23T00:04:49.368Z,0
2016-04-23T00:06:15.061Z,0
2016-04-23T00:07:02.110Z,0
2016-04-23T00:09:11.225Z,0
2016-04-23T00:09:25.350Z,0
2016-04-23T00:11:26.871Z,0
2016-04-23T00:12:23.859Z,0
2016-04-23T00:13:30.126Z,0
2016-04-23T00:14:24.489Z,0
2016-04-23T00:15:36.695Z,0
2016-04-23T00:16:23.884Z,0
2016-04-23T00:17:23.887Z,0
2016-04-23T00:18:30.203Z,0
2016-04-23T00:19:30.206Z,0
2016-04-23T00:20:30.223Z,0
2016-04-23T00:21:43.164Z,0
2016-04-23T00:22:36.682Z,0
2016-04-23T00:24:26.594Z,0
2016-04-23T00:24:54.719Z,0
2016-04-23T00:25:39.206Z,0
2016-04-23T00:26:51.927Z,0
2016-04-23T00:27:39.195Z,0
2016-04-23T00:28:51.964Z,0
2016-04-23T00:29:39.263Z,0
2016-04-23T00:30:58.438Z,0
2016-04-23T00:31:40.066Z,0
2016-04-23T00:33:10.586Z,0
2016-04-23T00:33:48.602Z,0
2016-04-23T00:35:10.624Z,0
2016-04-23T00:35:52.171Z,0
2016-04-23T00:36:39.954Z,0
2016-04-23T00:37:52.066Z,0
2016-04-23T00:38:51.350Z,0
2016-04-23T00:39:39.384Z,0
2016-04-23T00:40:39.387Z,0
2016-04-23T00:41:39.405Z,0
2016-04-23T00:42:52.157Z,0
2016-04-23T00:43:39.410Z,0
2016-04-23T00:45:36.432Z,0
2016-04-23T00:45:49.041Z,0
2016-04-23T00:47:01.765Z,0
2016-04-23T00:47:49.031Z,0
2016-04-23T00:49:40.395Z,0
2016-04-23T00:49:52.942Z,0
2016-04-23T00:50:52.320Z,0
2016-04-23T00:51:53.181Z,0
2016-04-23T00:52:59.263Z,0
2016-04-23T00:53:53.015Z,0
2016-04-23T00:55:05.786Z,0
2016-04-23T00:55:59.333Z,0
2016-04-23T00:56:53.086Z,0
2016-04-23T00:57:53.089Z,0
2016-04-23T00:59:05.844Z,0
2016-04-23T00:59:59.422Z,0
2016-04-23T01:01:18.787Z,0
2016-04-23T01:02:12.336Z,0
2016-04-23T01:03:49.463Z,0
2016-04-23T01:04:02.154Z,0
2016-04-23T01:05:02.048Z,0
2016-04-23T01:06:02.113Z,0
2016-04-23T01:07:14.084Z,0
2016-04-23T01:08:02.166Z,0
2016-04-23T01:09:02.105Z,0
2016-04-23T01:10:03.530Z,0
2016-04-23T01:11:08.438Z,0
2016-04-23T01:12:02.146Z,0
2016-04-23T01:13:14.898Z,0
2016-04-23T01:14:02.181Z,0
2016-04-23T01:15:21.371Z,0
2016-04-23T01:16:02.217Z,0
2016-04-23T01:17:59.299Z,0
2016-04-23T01:18:11.879Z,0
2016-04-23T01:19:11.882Z,0
2016-04-23T01:20:11.932Z,0
2016-04-23T01:21:18.170Z,0
2016-04-23T01:22:18.218Z,0
2016-04-23T01:23:30.580Z,0
2016-04-23T01:24:31.037Z,0
2016-04-23T01:25:31.320Z,0
2016-04-23T01:26:31.214Z,0
2016-04-23T01:27:12.075Z,0
2016-04-23T01:28:12.031Z,0
2016-04-23T01:29:11.987Z,0
2016-04-23T01:30:18.364Z,0
2016-04-23T01:31:12.086Z,0
2016-04-23T01:32:13.495Z,0
2016-04-23T01:33:18.327Z,0
2016-04-23T01:34:15.141Z,0
2016-04-23T01:35:12.082Z,0
2016-04-23T01:36:15.163Z,0
2016-04-23T01:37:12.102Z,0
2016-04-23T01:38:12.152Z,0
2016-04-23T01:39:18.421Z,0
2016-04-23T01:40:12.360Z,0
2016-04-23T01:41:12.160Z,0
2016-04-23T01:42:12.460Z,0
2016-04-23T01:43:12.196Z,0
2016-04-23T01:44:12.231Z,0
2016-04-23T01:45:12.234Z,0
2016-04-23T01:46:12.221Z,0
2016-04-23T01:47:24.989Z,0
2016-04-23T01:48:12.288Z,0
2016-04-23T01:49:31.479Z,0
2016-04-23T01:50:12.481Z,0
2016-04-23T01:51:37.984Z,0
2016-04-23T01:52:12.548Z,0
2016-04-23T01:53:13.756Z,0
2016-04-23T01:54:25.101Z,0
2016-04-23T01:55:12.463Z,0
2016-04-23T01:56:33.014Z,0
2016-04-23T01:57:13.812Z,0
2016-04-23T01:58:12.409Z,0
2016-04-23T01:59:12.536Z,0
2016-04-23T02:00:13.853Z,0
2016-04-23T02:01:12.448Z,0
2016-04-23T02:02:12.450Z,0
2016-04-23T02:03:18.719Z,0
2016-04-23T02:04:25.237Z,0
2016-04-23T02:05:25.225Z,0
2016-04-23T02:06:38.227Z,0
2016-04-23T02:07:31.746Z,0
2016-04-23T02:08:12.686Z,0
2016-04-23T02:09:12.533Z,0
2016-04-23T02:10:13.363Z,0
2016-04-23T02:11:12.584Z,0
2016-04-23T02:12:12.619Z,0
2016-04-23T02:13:12.574Z,0
2016-04-23T02:14:25.374Z,0
2016-04-23T02:15:12.610Z,0
2016-04-23T02:16:12.645Z,0
2016-04-23T02:17:12.663Z,0
2016-04-23T02:18:12.634Z,0
2016-04-23T02:19:12.653Z,0
2016-04-23T02:20:14.093Z,0
2016-04-23T02:21:25.440Z,0
2016-04-23T02:22:25.202Z,0
2016-04-23T02:23:25.580Z,0
2016-04-23T02:24:12.551Z,0
2016-04-23T02:25:12.600Z,0
2016-04-23T02:26:19.010Z,0
2016-04-23T02:27:12.762Z,0
2016-04-23T02:28:12.781Z,0
2016-04-23T02:29:12.783Z,0
2016-04-23T02:30:12.786Z,0
2016-04-23T02:31:25.602Z,0
2016-04-23T02:32:13.447Z,0
2016-04-23T02:33:32.200Z,0
2016-04-23T02:34:14.265Z,0
2016-04-23T02:35:38.565Z,0
2016-04-23T02:36:15.958Z,0
2016-04-23T02:37:12.758Z,0
2016-04-23T02:38:13.542Z,0
2016-04-23T02:39:19.310Z,0
2016-04-23T02:40:25.048Z,0
2016-04-23T02:41:13.565Z,0
2016-04-23T02:42:25.928Z,0
2016-04-23T02:43:19.259Z,0
2016-04-23T02:44:13.012Z,0
2016-04-23T02:45:12.998Z,0
2016-04-23T02:46:13.048Z,0
2016-04-23T02:47:13.067Z,0
2016-04-23T02:48:13.678Z,0
2016-04-23T02:49:13.072Z,0
2016-04-23T02:50:13.074Z,0
2016-04-23T02:51:13.078Z,0
2016-04-23T02:52:25.845Z,0
2016-04-23T02:53:19.347Z,0
2016-04-23T02:54:13.164Z,0
2016-04-23T02:55:25.978Z,0
2016-04-23T02:56:13.184Z,0
2016-04-23T02:58:22.722Z,0
2016-04-23T02:59:41.911Z,0
2016-04-23T03:00:22.726Z,0
2016-04-23T03:01:42.057Z,0
2016-04-23T03:02:22.810Z,0
2016-04-23T03:03:23.422Z,0
2016-04-23T03:04:22.799Z,0
2016-04-23T03:05:29.661Z,0
2016-04-23T03:06:22.836Z,0
2016-04-23T03:07:22.854Z,0
2016-04-23T03:08:22.857Z,0
2016-04-23T03:09:22.876Z,0
2016-04-23T03:10:23.472Z,0
2016-04-23T03:11:35.631Z,0
2016-04-23T03:12:22.929Z,0
2016-04-23T03:13:42.121Z,0
2016-04-23T03:14:35.670Z,0
2016-04-23T03:15:22.953Z,0
2016-04-23T03:16:23.129Z,0
2016-04-23T03:17:22.975Z,0
2016-04-23T03:18:23.087Z,0
2016-04-23T03:19:23.012Z,0
2016-04-23T03:20:35.749Z,0
2016-04-23T03:21:23.017Z,0
2016-04-23T03:22:42.239Z,0
2016-04-23T03:23:23.022Z,0
2016-04-23T03:24:48.744Z,0
2016-04-23T03:25:23.074Z,0
2016-04-23T03:26:54.608Z,0
2016-04-23T03:27:23.706Z,0
2016-04-23T03:28:23.145Z,0
2016-04-23T03:29:23.258Z,0
2016-04-23T03:30:23.135Z,0
2016-04-23T03:31:23.403Z,0
2016-04-23T03:32:23.172Z,0
2016-04-23T03:33:23.283Z,0
2016-04-23T03:34:23.427Z,0
2016-04-23T03:35:23.399Z,0
2016-04-23T03:36:29.652Z,0
2016-04-23T03:37:23.654Z,0
2016-04-23T03:38:23.219Z,0
2016-04-23T03:39:23.269Z,0
2016-04-23T03:40:23.287Z,0
2016-04-23T03:41:23.304Z,0
2016-04-23T03:42:23.339Z,0
2016-04-23T03:43:29.624Z,0
2016-04-23T03:44:29.610Z,0
2016-04-23T03:45:24.754Z,0
2016-04-23T03:46:23.412Z,0
2016-04-23T03:47:23.384Z,0
2016-04-23T03:48:23.402Z,0
2016-04-23T03:49:23.998Z,0
2016-04-23T03:50:29.673Z,0
2016-04-23T03:51:23.442Z,0
2016-04-23T03:52:24.726Z,0
2016-04-23T03:53:23.681Z,0
2016-04-23T03:54:23.497Z,0
2016-04-23T03:55:29.862Z,0
2016-04-23T03:56:23.521Z,0
2016-04-23T03:57:23.555Z,0
2016-04-23T03:58:23.526Z,0
2016-04-23T03:59:23.561Z,0
2016-04-23T04:00:36.312Z,0
2016-04-23T04:01:23.738Z,0
2016-04-23T04:02:23.616Z,0
2016-04-23T04:03:23.618Z,0
2016-04-23T04:04:36.355Z,0
2016-04-23T04:05:23.639Z,0
2016-04-23T04:06:36.376Z,0
2016-04-23T04:07:23.801Z,0
2016-04-23T04:08:43.070Z,0
2016-04-23T04:09:23.869Z,0
2016-04-23T04:10:49.589Z,0
2016-04-23T04:11:25.171Z,0
2016-04-23T04:13:21.020Z,0
2016-04-23T04:13:33.567Z,0
2016-04-23T04:14:33.664Z,5
2016-04-23T04:15:39.931Z,0
2016-04-23T04:16:39.919Z,5
2016-04-23T04:17:46.406Z,5
2016-04-23T04:18:40.018Z,5
2016-04-23T04:19:35.364Z,5
2016-04-23T04:20:33.616Z,5
2016-04-23T04:21:33.760Z,10
2016-04-23T04:22:46.497Z,10
2016-04-23T04:23:40.016Z,15
2016-04-23T04:25:30.755Z,20
2016-04-23T04:26:08.805Z,20
2016-04-23T04:27:33.901Z,25
2016-04-23T04:28:05.748Z,25
2016-04-23T04:28:58.576Z,30
2016-04-23T04:29:46.548Z,30
2016-04-23T04:31:05.725Z,35
2016-04-23T04:31:52.788Z,35
2016-04-23T04:33:17.871Z,35
2016-04-23T04:33:52.918Z,35
2016-04-23T04:35:17.876Z,35
2016-04-23T04:35:59.329Z,40
2016-04-23T04:37:18.569Z,40
2016-04-23T04:38:42.837Z,40
2016-04-23T04:39:58.075Z,40
2016-04-23T04:40:10.671Z,40
2016-04-23T04:41:36.376Z,45
2016-04-23T04:42:10.770Z,45
2016-04-23T04:44:13.306Z,45
2016-04-23T04:44:44.931Z,45
2016-04-23T04:45:25.934Z,50
2016-04-23T04:47:28.503Z,50
2016-04-23T04:47:41.143Z,50
2016-04-23T04:48:41.177Z,55
2016-04-23T04:49:41.148Z,55
2016-04-23T04:50:41.182Z,60
2016-04-23T04:51:41.247Z,60
2016-04-23T04:52:42.593Z,60
2016-04-23T04:53:53.987Z,65
2016-04-23T04:54:53.302Z,70
2016-04-23T04:56:00.633Z,75
2016-04-23T04:58:04.169Z,80
2016-04-23T04:58:16.751Z,80
2016-04-23T05:00:20.115Z,90
2016-04-23T05:00:32.771Z,90
2016-04-23T05:02:04.009Z,95
2016-04-23T05:02:45.652Z,95
2016-04-23T05:03:34.343Z,100
2016-04-23T05:04:51.970Z,105
2016-04-23T05:05:32.754Z,105
2016-04-23T05:07:29.979Z,110
2016-04-23T05:07:42.526Z,110
2016-04-23T05:09:34.498Z,95
2016-04-23T05:10:12.798Z,90
2016-04-23T05:10:47.189Z,90
2016-04-23T05:12:18.647Z,110
2016-04-23T05:12:54.194Z,115
2016-04-23T05:15:02.965Z,140
2016-04-23T05:16:03.000Z,145
2016-04-23T05:17:15.755Z,150
2016-04-23T05:18:03.067Z,155
2016-04-23T05:20:06.276Z,155
2016-04-23T05:21:24.797Z,155
2016-04-23T05:22:06.266Z,160
2016-04-23T05:24:09.507Z,165
2016-04-23T05:24:22.085Z,170
2016-04-23T05:25:22.276Z,165
2016-04-23T05:26:22.154Z,165
2016-04-23T05:27:22.188Z,170
2016-04-23T05:28:22.160Z,170
2016-04-23T05:29:22.177Z,170
2016-04-23T05:30:22.196Z,170
2016-04-23T05:31:23.635Z,175
2016-04-23T05:32:22.217Z,180
2016-04-23T05:33:22.220Z,185
2016-04-23T05:34:22.316Z,185
2016-04-23T05:35:22.256Z,190
2016-04-23T05:36:22.478Z,190
2016-04-23T05:37:22.324Z,190
2016-04-23T05:38:22.373Z,195
2016-04-23T05:39:22.329Z,205
2016-04-23T05:40:22.176Z,215
2016-04-23T05:41:22.351Z,225
2016-04-23T05:42:22.369Z,260
2016-04-23T05:43:22.403Z,275
2016-04-23T05:44:22.421Z,295
2016-04-23T05:45:22.470Z,265
2016-04-23T05:46:22.458Z,255
2016-04-23T05:47:22.585Z,245
2016-04-23T05:48:22.448Z,270
2016-04-23T05:49:22.653Z,310
2016-04-23T05:50:22.500Z,360
2016-04-23T05:51:22.519Z,330
2016-04-23T05:52:22.567Z,365
2016-04-23T05:53:22.664Z,425
2016-04-23T05:54:22.557Z,445
2016-04-23T05:55:22.607Z,425
2016-04-23T05:56:22.469Z,450
2016-04-23T05:57:22.565Z,500
2016-04-23T05:58:22.662Z,525
2016-04-23T05:59:22.649Z,480
2016-04-23T06:00:22.668Z,515
2016-04-23T06:01:22.685Z,570
2016-04-23T06:02:22.782Z,635
2016-04-23T06:03:22.753Z,570
2016-04-23T06:04:22.850Z,310
2016-04-23T06:05:22.774Z,690
2016-04-23T06:06:23.105Z,815
2016-04-23T06:07:22.796Z,890
2016-04-23T06:08:22.798Z,940
2016-04-23T06:09:22.832Z,965
2016-04-23T06:10:29.131Z,975
2016-04-23T06:11:22.884Z,1035
2016-04-23T06:12:22.903Z,1080
2016-04-23T06:13:22.920Z,1085
2016-04-23T06:14:22.939Z,740
2016-04-23T06:15:22.973Z,720
2016-04-23T06:16:22.976Z,835
2016-04-23T06:17:23.150Z,615
2016-04-23T06:18:29.153Z,1100
2016-04-23T06:19:23.093Z,1170
2016-04-23T06:20:23.050Z,1075
2016-04-23T06:21:23.115Z,570
2016-04-23T06:22:23.086Z,720
2016-04-23T06:23:23.136Z,1355
2016-04-23T06:24:23.153Z,1345
2016-04-23T06:25:23.156Z,1330
2016-04-23T06:26:23.268Z,1400
2016-04-23T06:27:23.208Z,1465
2016-04-23T06:28:36.024Z,1475
2016-04-23T06:29:23.277Z,1510
2016-04-23T06:30:49.029Z,1475
2016-04-23T06:31:23.282Z,1470
2016-04-23T06:32:23.347Z,1440
2016-04-23T06:33:23.381Z,1380
2016-04-23T06:34:23.415Z,1365
2016-04-23T06:35:23.401Z,1345
2016-04-23T06:36:36.202Z,1220
2016-04-23T06:37:23.439Z,1195
2016-04-23T06:38:23.488Z,1135
2016-04-23T06:39:23.507Z,1180
2016-04-23T06:40:23.384Z,1155
2016-04-23T06:41:23.653Z,1110
2016-04-23T06:42:23.608Z,1130
2016-04-23T06:43:23.642Z,1235
2016-04-23T06:44:23.661Z,1245
2016-04-23T06:45:23.679Z,1130
2016-04-23T06:46:36.431Z,1050
2016-04-23T06:47:23.715Z,1050
2016-04-23T06:48:23.687Z,1125
2016-04-23T06:49:23.767Z,1215
2016-04-23T06:50:23.895Z,1370
2016-04-23T06:51:23.741Z,450
2016-04-23T06:52:23.854Z,1440
2016-04-23T06:53:23.873Z,1525
2016-04-23T06:54:30.156Z,1525
2016-04-23T06:55:23.972Z,1465
2016-04-23T06:56:36.693Z,1560
2016-04-23T06:57:24.008Z,1565
2016-04-23T06:58:24.011Z,1660
2016-04-23T06:59:24.169Z,1720
2016-04-23T07:00:24.079Z,1295
2016-04-23T07:01:24.097Z,1005
2016-04-23T07:02:36.850Z,825
2016-04-23T07:03:24.180Z,795
2016-04-23T07:04:43.371Z,625
2016-04-23T07:05:36.920Z,775
2016-04-23T07:06:43.438Z,810
2016-04-23T07:07:43.456Z,735
2016-04-23T07:08:24.257Z,650
2016-04-23T07:09:24.322Z,1435
2016-04-23T07:10:24.465Z,1435
2016-04-23T07:11:24.359Z,1420
2016-04-23T07:12:24.392Z,1080
2016-04-23T07:13:24.395Z,1540
2016-04-23T07:14:24.492Z,1745
2016-04-23T07:15:24.478Z,1225
2016-04-23T07:16:24.497Z,525
2016-04-23T07:17:24.500Z,365
2016-04-23T07:18:24.596Z,370
2016-04-23T07:19:37.333Z,440
2016-04-23T07:20:24.570Z,480
2016-04-23T07:21:24.635Z,595
2016-04-23T07:22:24.497Z,1095
2016-04-23T07:23:24.703Z,420
2016-04-23T07:24:24.675Z,1655
2016-04-23T07:25:37.333Z,1675
2016-04-23T07:26:25.430Z,1640
2016-04-23T07:27:24.776Z,1240
2016-04-23T07:28:24.825Z,1720
2016-04-23T07:29:24.813Z,1705
2016-04-23T07:30:24.878Z,1695
2016-04-23T07:31:30.505Z,1685
2016-04-23T07:32:25.118Z,1660
2016-04-23T07:33:25.089Z,1700
2016-04-23T07:34:25.123Z,1715
2016-04-23T07:35:25.079Z,1695
2016-04-23T07:36:27.347Z,770
2016-04-23T07:37:25.085Z,1700
2016-04-23T07:38:25.102Z,1690
2016-04-23T07:39:25.090Z,1700
2016-04-23T07:40:25.170Z,1580
2016-04-23T07:41:25.471Z,1870
2016-04-23T07:42:25.361Z,755
2016-04-23T07:43:25.643Z,485
2016-04-23T07:44:25.440Z,1140
2016-04-23T07:45:25.642Z,1520
2016-04-23T07:46:25.479Z,580
2016-04-23T07:47:25.561Z,580
2016-04-23T07:48:25.580Z,845
2016-04-23T07:49:25.661Z,450
2016-04-23T07:50:25.665Z,475
2016-04-23T07:51:25.691Z,505
2016-04-23T07:52:25.762Z,560
2016-04-23T07:53:25.771Z,535
2016-04-23T07:54:25.841Z,550
2016-04-23T07:55:25.849Z,585
2016-04-23T07:56:27.246Z,600
2016-04-23T07:57:25.860Z,615
2016-04-23T07:58:26.100Z,615
2016-04-23T07:59:26.557Z,630
2016-04-23T08:00:26.046Z,600
2016-04-23T08:01:25.956Z,575
2016-04-23T08:02:26.037Z,530
2016-04-23T08:03:26.026Z,525
2016-04-23T08:04:26.029Z,500
2016-04-23T08:05:26.189Z,465
2016-04-23T08:06:26.113Z,400
2016-04-23T08:07:26.133Z,310
2016-04-23T08:08:26.183Z,250
2016-04-23T08:09:26.278Z,205
2016-04-23T08:10:26.204Z,180
2016-04-23T08:11:26.238Z,170
2016-04-23T08:12:26.241Z,170
2016-04-23T08:13:26.244Z,190
2016-04-23T08:14:26.262Z,220
2016-04-23T08:15:26.295Z,255
2016-04-23T08:16:28.517Z,295
2016-04-23T08:17:26.316Z,330
2016-04-23T08:18:26.383Z,355
2016-04-23T08:19:26.619Z,365
2016-04-23T08:20:26.418Z,370
2016-04-23T08:21:26.436Z,380
2016-04-23T08:22:26.455Z,395
2016-04-23T08:23:26.474Z,405
2016-04-23T08:24:26.491Z,425
2016-04-23T08:25:26.527Z,455
2016-04-23T08:26:26.544Z,460
2016-04-23T08:27:26.625Z,485
2016-04-23T08:28:26.580Z,500
2016-04-23T08:29:26.729Z,520
2016-04-23T08:30:26.637Z,530
2016-04-23T08:31:26.672Z,530
2016-04-23T08:32:26.674Z,530
2016-04-23T08:33:26.771Z,530
2016-04-23T08:34:26.711Z,530
2016-04-23T08:35:26.729Z,520
2016-04-23T08:36:26.748Z,495
2016-04-23T08:37:26.766Z,480
2016-04-23T08:38:26.770Z,455
2016-04-23T08:39:26.803Z,435
2016-04-23T08:40:26.836Z,425
2016-04-23T08:41:26.856Z,420
2016-04-23T08:42:27.061Z,415
2016-04-23T08:43:27.110Z,415
2016-04-23T08:44:27.098Z,430
2016-04-23T08:45:27.147Z,400
2016-04-23T08:46:27.086Z,415
2016-04-23T08:47:27.121Z,410
2016-04-23T08:48:27.109Z,425
2016-04-23T08:49:27.127Z,440
2016-04-23T08:50:27.129Z,475
2016-04-23T08:51:27.086Z,500
2016-04-23T08:52:27.135Z,515
2016-04-23T08:53:27.184Z,510
2016-04-23T08:54:27.140Z,515
2016-04-23T08:55:27.190Z,555
2016-04-23T08:56:39.911Z,610
2016-04-23T08:57:27.461Z,625
2016-04-23T08:58:46.416Z,520
2016-04-23T08:59:27.279Z,470
2016-04-23T09:00:27.312Z,410
2016-04-23T09:01:27.299Z,360
2016-04-23T09:02:27.880Z,345
2016-04-23T09:03:27.289Z,360
2016-04-23T09:04:27.292Z,385
2016-04-23T09:05:40.123Z,405
2016-04-23T09:06:27.360Z,415
2016-04-23T09:07:53.034Z,405
2016-04-23T09:08:27.443Z,405
2016-04-23T09:09:53.102Z,400
2016-04-23T09:10:27.464Z,390
2016-04-23T09:11:27.483Z,385
2016-04-23T09:12:27.470Z,375
2016-04-23T09:13:27.816Z,375
2016-04-23T09:14:27.537Z,390
2016-04-23T09:15:27.525Z,390
2016-04-23T09:16:40.277Z,400
2016-04-23T09:17:27.889Z,415
2016-04-23T09:18:46.861Z,445
2016-04-23T09:19:27.708Z,470
2016-04-23T09:20:27.632Z,530
2016-04-23T09:21:29.322Z,560
2016-04-23T09:22:27.683Z,595
2016-04-23T09:23:27.733Z,545
2016-04-23T09:24:40.455Z,475
2016-04-23T09:25:34.021Z,410
2016-04-23T09:26:46.820Z,415
2016-04-23T09:27:35.979Z,425
2016-04-23T09:28:47.043Z,435
2016-04-23T09:29:27.891Z,430
2016-04-23T09:30:27.862Z,435
2016-04-23T09:31:27.880Z,445
2016-04-23T09:32:27.899Z,480
2016-04-23T09:33:28.698Z,530
2016-04-23T09:34:27.795Z,575
2016-04-23T09:35:27.782Z,605
2016-04-23T09:36:28.065Z,630
2016-04-23T09:37:28.006Z,630
2016-04-23T09:38:28.070Z,605
2016-04-23T09:39:42.964Z,545
2016-04-23T09:40:28.061Z,545
2016-04-23T09:41:28.298Z,520
2016-04-23T09:42:27.987Z,520
2016-04-23T09:43:28.678Z,520
2016-04-23T09:44:28.103Z,520
2016-04-23T09:45:27.870Z,520
2016-04-23T09:46:28.186Z,520
2016-04-23T09:47:28.267Z,525
2016-04-23T09:48:28.239Z,525
2016-04-23T09:49:28.289Z,505
2016-04-23T09:50:28.244Z,515
2016-04-23T09:51:28.403Z,545
2016-04-23T09:52:28.280Z,590
2016-04-23T09:53:28.346Z,620
2016-04-23T09:54:28.380Z,625
2016-04-23T09:55:28.351Z,625
2016-04-23T09:56:28.400Z,615
2016-04-23T09:57:30.060Z,610
2016-04-23T09:58:28.530Z,605
2016-04-23T09:59:28.440Z,620
2016-04-23T10:00:28.536Z,605
2016-04-23T10:01:28.461Z,610
2016-04-23T10:02:35.433Z,600
2016-04-23T10:03:28.513Z,590
2016-04-23T10:04:28.562Z,555
2016-04-23T10:05:28.862Z,540
2016-04-23T10:06:28.599Z,545
2016-04-23T10:07:28.649Z,580
2016-04-23T10:08:35.604Z,615
2016-04-23T10:09:28.873Z,640
2016-04-23T10:11:19.251Z,645
2016-04-23T10:11:44.440Z,640
2016-04-23T10:12:31.881Z,630
2016-04-23T10:13:32.243Z,610
2016-04-23T10:14:31.917Z,600
2016-04-23T10:15:32.295Z,575
2016-04-23T10:16:33.298Z,550
2016-04-23T10:17:31.738Z,520
2016-04-23T10:18:32.038Z,485
2016-04-23T10:19:32.275Z,450
2016-04-23T10:20:32.106Z,425
2016-04-23T10:21:32.061Z,425
2016-04-23T10:22:36.485Z,410
2016-04-23T10:23:32.055Z,410
2016-04-23T10:24:32.104Z,385
2016-04-23T10:25:32.169Z,360
2016-04-23T10:26:32.016Z,335
2016-04-23T10:27:32.190Z,320
2016-04-23T10:28:32.224Z,310
2016-04-23T10:29:32.836Z,310
2016-04-23T10:30:32.213Z,320
2016-04-23T10:31:32.263Z,340
2016-04-23T10:32:32.266Z,365
2016-04-23T10:33:32.378Z,390
2016-04-23T10:34:33.240Z,415
2016-04-23T10:35:32.368Z,445
2016-04-23T10:36:32.370Z,470
2016-04-23T10:37:32.357Z,500
2016-04-23T10:38:32.376Z,530
2016-04-23T10:39:32.425Z,555
2016-04-23T10:40:32.553Z,580
2016-04-23T10:41:32.478Z,595
2016-04-23T10:42:32.481Z,600
2016-04-23T10:43:38.811Z,615
2016-04-23T10:44:32.579Z,625
2016-04-23T10:45:32.567Z,645
2016-04-23T10:46:33.226Z,625
2016-04-23T10:47:45.353Z,600
2016-04-23T10:48:32.622Z,590
2016-04-23T10:49:52.515Z,580
2016-04-23T10:50:32.628Z,580
2016-04-23T10:52:35.258Z,575
2016-04-23T10:53:13.664Z,575
2016-04-23T10:53:47.869Z,580
2016-04-23T10:54:48.045Z,580
2016-04-23T10:55:47.812Z,580
2016-04-23T10:56:48.064Z,575
2016-04-23T10:57:47.989Z,575
2016-04-23T10:58:48.024Z,565
2016-04-23T10:59:54.105Z,550
2016-04-23T11:00:48.029Z,545
2016-04-23T11:01:48.032Z,575
2016-04-23T11:02:48.034Z,575
2016-04-23T11:03:48.115Z,570
2016-04-23T11:05:01.305Z,510
2016-04-23T11:05:48.168Z,450
2016-04-23T11:07:07.342Z,360
2016-04-23T11:07:54.423Z,310
2016-04-23T11:08:48.191Z,315
2016-04-23T11:10:00.943Z,300
2016-04-23T11:10:48.243Z,295
2016-04-23T11:13:23.483Z,300
2016-04-23T11:14:54.831Z,315
2016-04-23T11:15:33.131Z,330
2016-04-23T11:16:07.522Z,330
2016-04-23T11:17:38.746Z,350
2016-04-23T11:18:07.496Z,355
2016-04-23T11:20:08.456Z,375
2016-04-23T11:21:07.567Z,385
2016-04-23T11:22:07.617Z,395
2016-04-23T11:23:07.588Z,405
2016-04-23T11:24:07.606Z,420
2016-04-23T11:25:07.672Z,440
2016-04-23T11:26:07.627Z,460
2016-04-23T11:27:07.880Z,480
2016-04-23T11:28:07.695Z,505
2016-04-23T11:29:07.058Z,525
2016-04-23T11:30:07.747Z,525
2016-04-23T11:31:08.031Z,535
2016-04-23T11:32:07.753Z,535
2016-04-23T11:33:07.818Z,525
2016-04-23T11:34:08.446Z,510
2016-04-23T11:35:14.792Z,500
2016-04-23T11:36:07.842Z,490
2016-04-23T11:37:08.063Z,460
2016-04-23T11:38:08.285Z,435
2016-04-23T11:39:07.913Z,405
2016-04-23T11:40:20.790Z,385
2016-04-23T11:41:08.340Z,365
2016-04-23T11:42:27.095Z,355
2016-04-23T11:43:08.110Z,350
2016-04-23T11:44:33.710Z,340
2016-04-23T11:45:08.101Z,350
2016-04-23T11:47:10.653Z,370
2016-04-23T11:47:48.951Z,380
2016-04-23T11:49:13.768Z,385
2016-04-23T11:49:46.004Z,380
2016-04-23T11:50:26.757Z,380
2016-04-23T11:51:26.417Z,380
2016-04-23T11:52:26.420Z,370
2016-04-23T11:53:26.453Z,370
2016-04-23T11:54:26.299Z,380
2016-04-23T11:55:26.489Z,415
2016-04-23T11:56:26.508Z,425
2016-04-23T11:57:26.526Z,435
2016-04-23T11:58:39.122Z,430
2016-04-23T11:59:26.797Z,430
2016-04-23T12:00:26.597Z,430
2016-04-23T12:01:39.381Z,370
2016-04-23T12:02:28.039Z,330
2016-04-23T12:03:26.667Z,285
2016-04-23T12:04:27.029Z,255
2016-04-23T12:05:27.844Z,245
2016-04-23T12:06:26.691Z,255
2016-04-23T12:07:26.772Z,275
2016-04-23T12:08:33.212Z,305
2016-04-23T12:09:27.199Z,315
2016-04-23T12:10:26.780Z,340
2016-04-23T12:11:26.782Z,365
2016-04-23T12:12:33.113Z,390
2016-04-23T12:13:26.850Z,415
2016-04-23T12:14:39.603Z,440
2016-04-23T12:15:27.043Z,455
2016-04-23T12:17:23.874Z,480
2016-04-23T12:17:36.454Z,480
2016-04-23T12:18:36.489Z,485
2016-04-23T12:19:36.381Z,490
2016-04-23T12:20:37.088Z,490
2016-04-23T12:21:42.840Z,485
2016-04-23T12:22:36.578Z,475
2016-04-23T12:23:36.611Z,455
2016-04-23T12:24:36.614Z,440
2016-04-23T12:25:49.367Z,415
2016-04-23T12:26:36.667Z,400
2016-04-23T12:27:49.404Z,395
2016-04-23T12:28:36.703Z,390
2016-04-23T12:29:36.721Z,380
2016-04-23T12:30:43.146Z,370
2016-04-23T12:31:36.758Z,345
2016-04-23T12:32:36.761Z,330
2016-04-23T12:33:49.545Z,290
2016-04-23T12:34:36.844Z,300
2016-04-23T12:35:39.988Z,305
2016-04-23T12:36:36.834Z,290
2016-04-23T12:37:36.868Z,295
2016-04-23T12:38:36.871Z,300
2016-04-23T12:39:36.920Z,290
2016-04-23T12:40:43.266Z,295
2016-04-23T12:41:36.957Z,295
2016-04-23T12:42:37.507Z,315
2016-04-23T12:43:36.993Z,325
2016-04-23T12:44:37.074Z,340
2016-04-23T12:45:37.046Z,360
2016-04-23T12:46:37.268Z,365
2016-04-23T12:47:37.238Z,350
2016-04-23T12:48:37.320Z,355
2016-04-23T12:49:37.462Z,300
2016-04-23T12:50:38.090Z,275
2016-04-23T12:51:50.031Z,260
2016-04-23T12:52:37.268Z,240
2016-04-23T12:53:50.004Z,255
2016-04-23T12:54:37.242Z,245
2016-04-23T12:56:34.372Z,225
2016-04-23T12:57:12.622Z,230
2016-04-23T12:57:47.031Z,235
2016-04-23T12:59:18.596Z,280
2016-04-23T12:59:47.286Z,310
2016-04-23T13:00:47.039Z,355
2016-04-23T13:01:47.089Z,360
2016-04-23T13:02:46.966Z,335
2016-04-23T13:03:53.344Z,305
2016-04-23T13:04:46.862Z,310
2016-04-23T13:06:01.943Z,270
2016-04-23T13:07:06.367Z,255
2016-04-23T13:10:20.156Z,285
2016-04-23T13:10:54.502Z,295
2016-04-23T13:11:54.442Z,325
2016-04-23T13:12:54.477Z,315
2016-04-23T13:13:54.495Z,340
2016-04-23T13:14:54.545Z,330
2016-04-23T13:15:54.500Z,345
2016-04-23T13:16:54.518Z,390
2016-04-23T13:17:54.615Z,390
2016-04-23T13:18:54.508Z,380
2016-04-23T13:19:56.886Z,370
2016-04-23T13:20:59.170Z,365
2016-04-23T13:22:07.287Z,370
2016-04-23T13:22:54.540Z,375
2016-04-23T13:23:54.558Z,385
2016-04-23T13:24:54.607Z,390
2016-04-23T13:25:54.610Z,390
2016-04-23T13:26:54.738Z,380
2016-04-23T13:27:54.648Z,370
2016-04-23T13:28:54.711Z,375
2016-04-23T13:29:54.698Z,365
2016-04-23T13:30:55.311Z,355
2016-04-23T13:31:54.767Z,355
2016-04-23T13:32:54.816Z,355
2016-04-23T13:33:54.789Z,340
2016-04-23T13:34:55.353Z,325
2016-04-23T13:35:54.886Z,310
2016-04-23T13:37:07.562Z,300
2016-04-23T13:37:54.861Z,290
2016-04-23T13:38:54.910Z,275
2016-04-23T13:39:54.961Z,245
2016-04-23T13:40:54.933Z,255
2016-04-23T13:41:55.045Z,250
2016-04-23T13:42:55.578Z,250
2016-04-23T13:43:55.034Z,250
2016-04-23T13:44:55.021Z,255
2016-04-23T13:45:55.024Z,260
2016-04-23T13:46:55.074Z,250
2016-04-23T13:47:55.670Z,280
2016-04-23T13:49:07.797Z,270
2016-04-23T13:49:55.816Z,275
2016-04-23T13:50:58.694Z,265
2016-04-23T13:52:14.181Z,265
2016-04-23T13:52:55.746Z,280
2016-04-23T13:54:20.858Z,335
2016-04-23T13:54:56.627Z,365
2016-04-23T13:56:57.851Z,465
2016-04-23T13:57:10.569Z,470
2016-04-23T13:58:10.604Z,465
2016-04-23T13:59:10.715Z,445
2016-04-23T14:00:16.905Z,415
2016-04-23T14:01:16.893Z,395
2016-04-23T14:02:29.864Z,365
2016-04-23T14:03:18.523Z,350
2016-04-23T14:04:15.307Z,340
2016-04-23T14:05:11.841Z,330
2016-04-23T14:06:10.640Z,310
2016-04-23T14:07:10.659Z,280
2016-04-23T14:08:10.693Z,270
2016-04-23T14:09:10.695Z,260
2016-04-23T14:10:10.714Z,245
2016-04-23T14:11:17.045Z,245
2016-04-23T14:12:10.766Z,260
2016-04-23T14:13:23.503Z,260
2016-04-23T14:14:23.522Z,255
2016-04-23T14:15:23.525Z,255
2016-04-23T14:16:10.870Z,255
2016-04-23T14:17:30.076Z,235
2016-04-23T14:18:17.220Z,235